Time;durP1;ratioP1;P1;durP2;ratioP2;P2;SDS_P1;SDS_P2;PMS_P1;PMS_P2;Temp;Humidity;BMP_temperature;BMP_pressure;BME280_temperature;BME280_humidity;BME280_pressure;Samples;Min_cycle;Max_cycle;Signal;HPM_P1;HPM_P2
2021/12/31 00:01:49;;;;;;;4.68;3.25;;;;;;;19.96;46.36;101230.47;4179254;28;20041;-48
2021/12/31 00:03:52;;;;;;;4.70;2.80;;;;;;;19.95;46.38;101235.19;4178199;28;20036;-49
2021/12/31 00:05:53;;;;;;;4.90;3.00;;;;;;;19.96;46.66;101241.56;4175640;28;20090;-51
2021/12/31 00:07:54;;;;;;;4.13;3.08;;;;;;;19.96;46.43;101241.56;4170919;28;20136;-48
2021/12/31 00:10:00;;;;;;;6.47;3.42;;;;;;;19.95;46.77;101251.84;4173001;28;20044;-47
2021/12/31 00:12:03;;;;;;;5.05;3.03;;;;;;;19.94;46.75;101249.34;4180476;28;20041;-46
2021/12/31 00:14:04;;;;;;;5.00;3.17;;;;;;;19.94;46.65;101254.91;4180154;28;20434;-47
2021/12/31 00:16:06;;;;;;;5.55;3.20;;;;;;;19.95;46.96;101256.56;4180611;28;20084;-49
2021/12/31 00:18:09;;;;;;;4.18;3.35;;;;;;;19.96;46.51;101263.81;4174709;28;20037;-49
2021/12/31 00:20:15;;;;;;;3.75;3.00;;;;;;;19.91;46.78;101247.09;4174091;28;20103;-49
2021/12/31 00:24:23;;;;;;;9.48;3.10;;;;;;;19.96;46.45;101249.91;4176396;28;20032;-51
2021/12/31 00:26:25;;;;;;;5.60;3.00;;;;;;;19.93;46.89;101253.22;4171716;28;20443;-49
2021/12/31 00:28:29;;;;;;;27.23;3.90;;;;;;;19.89;47.30;101236.28;4166497;28;20030;-49
2021/12/31 00:30:31;;;;;;;28.52;3.50;;;;;;;19.86;47.58;101259.00;4176080;28;20041;-52
2021/12/31 00:32:33;;;;;;;14.05;3.88;;;;;;;19.80;47.73;101249.81;4176613;28;20041;-51
2021/12/31 00:34:34;;;;;;;11.68;4.22;;;;;;;19.68;47.78;101243.59;4167524;28;20484;-51
2021/12/31 00:36:40;;;;;;;10.70;3.70;;;;;;;19.66;48.02;101245.81;4174783;28;20049;-54
2021/12/31 00:38:41;;;;;;;8.15;3.13;;;;;;;19.63;47.78;101243.56;4172599;28;20041;-51
2021/12/31 00:40:44;;;;;;;16.92;3.22;;;;;;;19.61;47.82;101250.47;4166441;28;20095;-53
2021/12/31 00:42:46;;;;;;;8.52;3.40;;;;;;;19.60;47.71;101255.19;4182325;28;20049;-51
2021/12/31 00:44:47;;;;;;;11.27;3.20;;;;;;;19.59;48.13;101253.47;4174917;28;20049;-51
2021/12/31 00:46:49;;;;;;;9.48;3.20;;;;;;;19.59;48.04;101259.03;4183409;28;20098;-52
2021/12/31 00:48:50;;;;;;;13.55;3.15;;;;;;;19.59;48.03;101259.03;4182963;28;20041;-49
2021/12/31 00:50:58;;;;;;;10.27;3.03;;;;;;;19.59;47.84;101270.13;4182802;28;20091;-53
2021/12/31 00:52:59;;;;;;;10.73;4.13;;;;;;;19.55;47.60;101268.97;4172044;28;20025;-50
2021/12/31 00:55:01;;;;;;;8.38;4.93;;;;;;;19.55;47.84;101266.22;4181173;28;20041;-51
2021/12/31 00:57:04;;;;;;;13.70;4.75;;;;;;;19.56;47.81;101273.44;4172035;28;20404;-49
2021/12/31 00:59:05;;;;;;;9.80;4.75;;;;;;;19.53;48.27;101268.44;4182395;28;20044;-52
2021/12/31 01:01:06;;;;;;;15.50;5.22;;;;;;;19.54;48.26;101273.69;4183382;28;20059;-53
2021/12/31 01:03:08;;;;;;;10.35;6.00;;;;;;;19.56;48.24;101273.44;4182536;28;20377;-51
2021/12/31 01:05:13;;;;;;;11.32;6.63;;;;;;;19.53;48.47;101271.19;4173749;28;20115;-50
2021/12/31 01:07:20;;;;;;;12.05;7.00;;;;;;;19.52;48.67;101264.81;4182917;28;20052;-54
2021/12/31 01:09:22;;;;;;;11.30;7.00;;;;;;;19.54;48.58;101267.31;4182806;28;20103;-53
2021/12/31 01:11:23;;;;;;;17.30;6.88;;;;;;;19.53;48.68;101282.31;4180201;28;20554;-49
2021/12/31 01:13:33;;;;;;;13.98;6.55;;;;;;;19.54;48.83;101283.97;4170578;28;20091;-52
2021/12/31 01:15:45;;;;;;;11.00;6.10;;;;;;;19.56;48.80;101287.31;4173988;28;20033;-50
2021/12/31 01:19:57;;;;;;;21.90;6.95;;;;;;;19.58;48.67;101287.06;4166677;28;20452;-53
2021/12/31 01:22:01;;;;;;;11.02;6.75;;;;;;;19.58;49.07;101282.34;4166582;28;20103;-52
2021/12/31 01:24:03;;;;;;;17.73;7.57;;;;;;;19.57;48.78;101289.00;4167274;28;20045;-50
2021/12/31 01:26:05;;;;;;;12.02;6.65;;;;;;;19.58;48.95;101293.44;4167316;28;20754;-47
2021/12/31 01:28:06;;;;;;;12.60;6.55;;;;;;;19.59;49.06;101292.34;4182134;28;20436;-52
2021/12/31 01:30:12;;;;;;;17.00;6.88;;;;;;;19.58;49.16;101290.69;4182694;28;20106;-52
2021/12/31 01:32:13;;;;;;;12.38;7.13;;;;;;;19.59;48.85;101295.13;4172057;28;20037;-50
2021/12/31 01:34:14;;;;;;;11.55;7.57;;;;;;;19.58;49.30;101306.50;4165948;28;20400;-52
2021/12/31 01:36:19;;;;;;;11.60;7.20;;;;;;;19.59;49.11;101303.44;4166448;28;20033;-50
2021/12/31 01:38:20;;;;;;;12.67;7.33;;;;;;;19.59;49.25;101310.94;4166789;28;20119;-54
2021/12/31 01:40:24;;;;;;;11.05;6.90;;;;;;;19.59;49.18;101309.00;4182325;28;20423;-48
2021/12/31 01:42:32;;;;;;;15.52;7.53;;;;;;;19.58;49.04;101318.44;4180994;28;20040;-50
2021/12/31 01:44:38;;;;;;;15.00;8.43;;;;;;;19.58;49.22;101324.00;4182068;28;20106;-48
2021/12/31 01:46:57;;;;;;;20.73;11.73;;;;;;;19.57;49.27;101327.03;4182004;28;20435;-50
2021/12/31 01:51:00;;;;;;;51.13;29.98;;;;;;;19.58;49.22;101329.53;4182474;28;20422;-50
2021/12/31 01:53:01;;;;;;;88.22;53.67;;;;;;;19.60;49.39;101329.28;4181489;28;20111;-49
2021/12/31 01:55:04;;;;;;;98.03;59.28;;;;;;;19.58;49.32;101328.72;4181079;28;20021;-53
2021/12/31 01:57:09;;;;;;;106.18;64.03;;;;;;;19.56;49.34;101331.72;4181127;28;20033;-48
2021/12/31 01:59:15;;;;;;;121.85;72.03;;;;;;;19.57;49.12;101335.38;4174852;28;20022;-50
2021/12/31 02:01:16;;;;;;;144.68;85.00;;;;;;;19.59;49.22;101339.53;4165367;28;20037;-50
2021/12/31 02:03:19;;;;;;;138.88;86.82;;;;;;;19.60;49.38;101351.47;4165272;28;20099;-51
2021/12/31 02:05:23;;;;;;;143.75;87.40;;;;;;;19.59;49.45;101349.81;4171167;28;20048;-51
2021/12/31 02:07:25;;;;;;;141.68;87.00;;;;;;;19.55;49.16;101341.16;4166903;28;20041;-52
2021/12/31 02:09:27;;;;;;;146.15;91.03;;;;;;;19.59;49.39;101361.75;4175795;28;20029;-53
2021/12/31 02:11:29;;;;;;;162.30;97.93;;;;;;;19.59;48.99;101345.09;4175831;28;20095;-51
2021/12/31 02:13:30;;;;;;;155.23;95.60;;;;;;;19.59;49.21;101350.66;4181636;28;20083;-53
2021/12/31 02:15:32;;;;;;;162.52;98.65;;;;;;;19.59;49.19;101350.66;4169064;28;20454;-51
2021/12/31 02:17:36;;;;;;;162.20;98.95;;;;;;;19.59;49.08;101358.97;4181261;28;20075;-52
2021/12/31 02:19:39;;;;;;;159.52;98.50;;;;;;;19.60;49.14;101348.69;4181926;28;20059;-54
2021/12/31 02:21:44;;;;;;;160.85;102.13;;;;;;;19.55;49.08;101346.72;4181208;28;20094;-54
2021/12/31 02:23:51;;;;;;;163.35;101.97;;;;;;;19.60;49.23;101365.34;4181628;28;20040;-51
2021/12/31 02:25:54;;;;;;;173.75;105.90;;;;;;;19.60;49.10;101348.69;4181620;28;20107;-53
2021/12/31 02:27:55;;;;;;;170.57;102.72;;;;;;;19.60;48.68;101352.34;4181108;28;20045;-54
2021/12/31 02:29:59;;;;;;;163.88;102.10;;;;;;;19.58;48.99;101342.59;4181499;28;20447;-54
2021/12/31 02:32:01;;;;;;;161.17;101.37;;;;;;;19.61;48.62;101344.84;4180558;28;20037;-54
2021/12/31 02:34:02;;;;;;;164.82;101.32;;;;;;;19.59;48.66;101361.75;4178453;28;20492;-50
2021/12/31 02:36:06;;;;;;;167.77;102.90;;;;;;;19.60;48.99;101352.34;4180086;28;20045;-50
2021/12/31 02:38:08;;;;;;;164.57;103.20;;;;;;;19.60;48.73;101349.56;4176718;28;20507;-50
2021/12/31 02:40:14;;;;;;;170.57;105.30;;;;;;;19.61;48.45;101347.63;4174808;28;20045;-50
2021/12/31 02:42:15;;;;;;;163.57;101.88;;;;;;;19.60;48.85;101344.00;4171306;28;20119;-52
2021/12/31 02:44:17;;;;;;;166.68;102.22;;;;;;;19.60;48.50;101343.16;4172988;28;20053;-52
2021/12/31 02:46:18;;;;;;;170.15;104.05;;;;;;;19.60;48.74;101343.16;4172710;28;20425;-53
2021/12/31 02:48:27;;;;;;;167.35;102.28;;;;;;;19.60;48.61;101344.00;4176229;28;20488;-53
2021/12/31 02:50:33;;;;;;;170.68;104.28;;;;;;;19.59;48.71;101347.88;4168546;28;20046;-54
2021/12/31 02:52:38;;;;;;;168.48;102.47;;;;;;;19.57;48.45;101338.97;4180320;28;20045;-51
2021/12/31 02:54:46;;;;;;;158.30;101.82;;;;;;;19.52;48.64;101325.06;4181610;28;20078;-51
2021/12/31 02:56:47;;;;;;;166.20;103.30;;;;;;;19.59;48.62;101330.38;4168992;28;20515;-51
2021/12/31 02:58:49;;;;;;;165.20;102.75;;;;;;;19.58;48.58;101329.53;4165633;28;20099;-53
2021/12/31 03:00:50;;;;;;;166.38;103.93;;;;;;;19.60;48.56;101316.25;4178969;28;20049;-54
2021/12/31 03:02:53;;;;;;;165.43;102.82;;;;;;;19.60;48.54;101319.03;4180128;28;20087;-54
2021/12/31 03:04:58;;;;;;;168.93;104.22;;;;;;;19.59;48.69;101320.09;4181105;28;20033;-51
2021/12/31 03:07:04;;;;;;;160.85;101.38;;;;;;;19.58;48.61;101324.00;4178454;28;20041;-53
2021/12/31 03:09:06;;;;;;;166.98;103.95;;;;;;;19.55;48.46;101317.00;4180304;28;20387;-50
2021/12/31 03:11:08;;;;;;;163.68;101.50;;;;;;;19.60;48.37;101326.50;4180567;28;20033;-51
2021/12/31 03:13:10;;;;;;;160.95;99.38;;;;;;;19.61;48.51;101329.06;4181428;28;20021;-51
2021/12/31 03:15:14;;;;;;;168.10;103.03;;;;;;;19.61;48.16;101330.97;4180874;28;20040;-53
2021/12/31 03:17:18;;;;;;;162.60;98.90;;;;;;;19.60;48.69;101332.91;4174499;28;20037;-55
2021/12/31 03:19:21;;;;;;;164.00;96.75;;;;;;;19.59;48.59;101333.97;4175370;28;20034;-50
2021/12/31 03:21:22;;;;;;;160.13;97.90;;;;;;;19.57;48.70;101327.88;4181109;28;20029;-52
2021/12/31 03:23:25;;;;;;;156.18;95.57;;;;;;;19.58;48.94;101324.00;4179474;28;20040;-50
2021/12/31 03:25:26;;;;;;;153.02;93.82;;;;;;;19.54;48.88;101322.84;4180671;28;20134;-50
2021/12/31 03:27:27;;;;;;;160.60;96.43;;;;;;;19.54;49.04;101333.94;4181024;28;20029;-51
2021/12/31 03:29:32;;;;;;;156.70;94.78;;;;;;;19.53;49.17;101326.72;4180661;28;20503;-53
2021/12/31 03:31:33;;;;;;;148.75;93.68;;;;;;;19.54;48.98;101317.28;4177350;28;20183;-50
2021/12/31 03:33:35;;;;;;;149.77;93.15;;;;;;;19.53;48.96;101322.00;4164421;28;20543;-47
2021/12/31 03:35:36;;;;;;;151.13;93.63;;;;;;;19.53;48.99;101310.06;4163937;28;20577;-49
2021/12/31 03:37:38;;;;;;;149.95;92.50;;;;;;;19.54;49.18;101312.56;4164047;28;20033;-52
2021/12/31 03:39:39;;;;;;;151.45;94.88;;;;;;;19.54;49.25;101315.34;4163786;28;20033;-54
2021/12/31 03:41:40;;;;;;;153.50;92.95;;;;;;;19.53;48.98;101308.13;4167655;28;20090;-54
2021/12/31 03:43:42;;;;;;;154.38;93.25;;;;;;;19.52;48.88;101297.28;4180606;28;20029;-49
2021/12/31 03:45:44;;;;;;;149.38;90.68;;;;;;;19.53;49.20;101305.34;4180678;28;20071;-52
2021/12/31 03:47:46;;;;;;;148.25;90.28;;;;;;;19.52;49.39;101302.84;4180409;28;20094;-54
2021/12/31 03:49:47;;;;;;;144.20;91.65;;;;;;;19.52;49.24;101300.91;4178892;28;20033;-49
2021/12/31 03:51:48;;;;;;;146.48;90.03;;;;;;;19.53;49.28;101310.06;4180335;28;20067;-52
2021/12/31 03:53:50;;;;;;;135.35;86.07;;;;;;;19.52;49.64;101303.69;4180194;28;20037;-51
2021/12/31 03:55:51;;;;;;;147.45;88.60;;;;;;;19.50;49.48;101285.59;4180520;28;20033;-48
2021/12/31 03:57:53;;;;;;;137.82;84.82;;;;;;;19.52;49.43;101286.19;4179545;28;20114;-48
2021/12/31 03:59:54;;;;;;;140.85;86.60;;;;;;;19.52;49.63;101286.19;4180328;28;20110;-49
2021/12/31 04:01:56;;;;;;;142.88;87.18;;;;;;;19.52;49.67;101280.63;4180738;28;20078;-47
2021/12/31 04:03:57;;;;;;;138.85;84.47;;;;;;;19.52;49.54;101283.41;4180439;28;20037;-47
2021/12/31 04:05:58;;;;;;;135.68;84.65;;;;;;;19.52;49.15;101286.19;4180169;28;20090;-53
2021/12/31 04:08:00;;;;;;;136.75;82.78;;;;;;;19.49;49.57;101282.00;4179493;28;20555;-53
2021/12/31 04:10:01;;;;;;;127.85;80.53;;;;;;;19.48;49.57;101274.75;4180506;28;20159;-51
2021/12/31 04:12:03;;;;;;;135.55;83.15;;;;;;;19.51;49.57;101267.84;4177729;28;20051;-52
2021/12/31 04:14:07;;;;;;;135.50;82.00;;;;;;;19.53;49.54;101283.13;4179966;28;20033;-53
2021/12/31 04:16:09;;;;;;;133.17;80.10;;;;;;;19.55;49.69;101274.53;4168664;28;20106;-55
2021/12/31 04:18:10;;;;;;;130.70;79.32;;;;;;;19.54;49.61;101261.75;4179688;28;20029;-52
2021/12/31 04:20:19;;;;;;;125.93;78.90;;;;;;;19.53;49.34;101271.19;4179222;28;20434;-50
2021/12/31 04:22:23;;;;;;;123.50;77.78;;;;;;;19.51;49.17;101268.66;4163671;28;20081;-54
2021/12/31 04:24:58;;;;;;;126.03;76.07;;;;;;;19.53;49.20;101269.25;4163287;28;20508;-53
2021/12/31 04:26:52;;;;;;;123.22;75.00;;;;;;;19.52;49.43;101266.75;4179848;28;20037;-52
2021/12/31 04:28:54;;;;;;;123.50;75.13;;;;;;;19.51;49.16;101265.06;4179617;28;20492;-51
2021/12/31 04:30:57;;;;;;;122.03;76.05;;;;;;;19.53;49.34;101271.19;4179255;28;20064;-48
2021/12/31 04:32:59;;;;;;;122.47;75.03;;;;;;;19.52;49.36;101270.38;4179109;28;20087;-51
2021/12/31 04:35:01;;;;;;;123.07;73.50;;;;;;;19.52;49.71;101269.53;4179578;28;20098;-50
2021/12/31 04:37:02;;;;;;;120.25;75.63;;;;;;;19.51;49.33;101260.34;4179600;28;20041;-49
2021/12/31 04:39:04;;;;;;;120.70;73.70;;;;;;;19.49;49.77;101257.00;4180142;28;20368;-52
2021/12/31 04:41:05;;;;;;;119.85;71.78;;;;;;;19.51;49.56;101253.97;4180125;28;20029;-53
2021/12/31 04:43:07;;;;;;;118.75;72.60;;;;;;;19.50;49.36;101258.66;4180069;28;20024;-53
2021/12/31 04:45:10;;;;;;;118.50;70.68;;;;;;;19.50;49.77;101255.06;4179844;28;20048;-51
2021/12/31 04:47:11;;;;;;;111.03;69.60;;;;;;;19.51;49.30;101267.84;4179937;28;20435;-53
2021/12/31 04:49:12;;;;;;;111.45;70.00;;;;;;;19.50;49.54;101260.63;4179570;28;20041;-49
2021/12/31 04:51:14;;;;;;;107.60;66.82;;;;;;;19.50;49.58;101268.94;4179990;28;20049;-52
2021/12/31 04:53:15;;;;;;;114.10;68.25;;;;;;;19.49;49.62;101267.28;4177220;28;20131;-49
2021/12/31 04:55:16;;;;;;;110.80;67.60;;;;;;;19.48;49.93;101274.75;4174852;28;20029;-52
2021/12/31 04:57:20;;;;;;;108.57;65.80;;;;;;;19.49;49.97;101270.88;4180155;28;20049;-52
2021/12/31 04:59:22;;;;;;;107.88;65.43;;;;;;;19.48;49.81;101262.84;4177868;28;20049;-52
2021/12/31 05:01:23;;;;;;;108.10;67.13;;;;;;;19.49;50.20;101270.88;4172473;28;20099;-52
2021/12/31 05:03:24;;;;;;;106.85;66.35;;;;;;;19.48;50.37;101271.16;4161871;28;20370;-49
2021/12/31 05:05:26;;;;;;;107.82;65.05;;;;;;;19.49;50.15;101261.72;4174628;28;20052;-55
2021/12/31 05:07:28;;;;;;;103.88;62.28;;;;;;;19.46;50.53;101262.25;4179310;28;20037;-52
2021/12/31 05:09:29;;;;;;;103.30;62.08;;;;;;;19.49;50.63;101268.09;4179029;28;20095;-50
2021/12/31 05:11:31;;;;;;;105.40;62.45;;;;;;;19.48;50.82;101273.94;4179701;28;20044;-49
2021/12/31 05:13:32;;;;;;;96.13;59.97;;;;;;;19.49;50.55;101275.59;4179692;28;20373;-52
2021/12/31 05:15:37;;;;;;;105.13;62.75;;;;;;;19.47;51.04;101256.44;4180145;28;20033;-52
2021/12/31 05:17:39;;;;;;;98.25;59.85;;;;;;;19.50;50.93;101260.63;4179440;28;20094;-50
2021/12/31 05:19:44;;;;;;;95.45;59.92;;;;;;;19.49;51.06;101265.34;4178718;28;20029;-49
2021/12/31 05:21:47;;;;;;;;;;;;;;;19.48;50.90;101268.38;4180358;28;20099;-49
2021/12/31 05:23:48;;;;;;;96.20;59.83;;;;;;;19.54;50.91;101270.09;4181543;28;19944;-54
2021/12/31 05:25:50;;;;;;;94.13;59.20;;;;;;;19.54;51.03;101275.66;4181970;28;20052;-50
2021/12/31 05:27:51;;;;;;;91.72;57.30;;;;;;;19.54;51.02;101281.19;4168311;28;20041;-48
2021/12/31 05:29:53;;;;;;;98.03;59.13;;;;;;;19.52;51.12;101286.19;4166062;28;20041;-53
2021/12/31 05:31:54;;;;;;;93.93;57.53;;;;;;;19.50;51.19;101293.91;4166503;28;20029;-49
2021/12/31 05:33:55;;;;;;;97.95;58.42;;;;;;;19.51;51.37;101301.16;4179959;28;20040;-50
2021/12/31 05:35:59;;;;;;;92.50;55.85;;;;;;;19.50;51.27;101293.91;4182305;28;20310;-49
2021/12/31 05:38:01;;;;;;;91.55;55.78;;;;;;;19.47;51.76;101278.66;4182180;28;20111;-52
2021/12/31 05:40:03;;;;;;;85.50;54.08;;;;;;;19.42;51.69;101269.41;4182494;28;20075;-53
2021/12/31 05:42:05;;;;;;;92.00;54.55;;;;;;;19.49;51.53;101287.53;4182250;28;20449;-52
2021/12/31 05:44:10;;;;;;;93.82;57.45;;;;;;;19.49;51.84;101292.25;4181939;28;20110;-48
2021/12/31 05:46:11;;;;;;;93.30;54.50;;;;;;;19.50;51.96;101291.16;4182130;28;20048;-50
2021/12/31 05:48:13;;;;;;;80.85;52.47;;;;;;;19.50;52.03;101289.22;4181667;28;20446;-52
2021/12/31 05:50:30;;;;;;;86.55;52.28;;;;;;;19.47;51.73;101272.22;4181710;28;20036;-53
2021/12/31 05:52:34;;;;;;;79.47;50.38;;;;;;;19.48;51.84;101262.84;4182528;28;20037;-49
2021/12/31 05:54:35;;;;;;;81.97;50.78;;;;;;;19.50;51.86;101268.94;4182581;28;20379;-50
2021/12/31 05:56:37;;;;;;;79.90;50.28;;;;;;;19.47;51.79;101266.69;4182320;28;20094;-51
2021/12/31 05:58:38;;;;;;;81.13;49.97;;;;;;;19.50;51.97;101264.22;4181705;28;20091;-51
2021/12/31 06:00:40;;;;;;;74.80;48.25;;;;;;;19.50;51.79;101277.28;4181107;28;20045;-47
2021/12/31 06:02:41;;;;;;;77.82;49.65;;;;;;;19.49;51.69;101276.44;4181896;28;20079;-48
2021/12/31 06:04:43;;;;;;;78.10;49.38;;;;;;;19.47;52.23;101272.22;4181893;28;20045;-51
2021/12/31 06:06:44;;;;;;;76.55;48.60;;;;;;;19.49;52.12;101278.38;4182274;28;20098;-51
2021/12/31 06:08:46;;;;;;;71.38;46.72;;;;;;;19.49;52.06;101283.94;4182025;28;20087;-51
2021/12/31 06:10:47;;;;;;;76.95;47.38;;;;;;;19.49;51.87;101282.00;4181720;28;20475;-51
2021/12/31 06:12:57;;;;;;;73.05;47.72;;;;;;;19.48;52.32;101280.31;4181871;28;20049;-54
2021/12/31 06:15:02;;;;;;;70.72;45.75;;;;;;;19.43;52.38;101276.66;4182307;28;20399;-50
2021/12/31 06:17:07;;;;;;;77.82;46.90;;;;;;;19.50;52.29;101288.38;4180781;28;20095;-52
2021/12/31 06:19:12;;;;;;;70.97;45.05;;;;;;;19.45;52.34;101291.09;4182221;28;20041;-48
2021/12/31 06:21:17;;;;;;;69.55;45.28;;;;;;;19.46;52.21;101303.88;4181282;28;20103;-53
2021/12/31 06:23:23;;;;;;;70.93;44.30;;;;;;;19.49;52.36;101303.34;4181360;28;20037;-52
2021/12/31 06:25:28;;;;;;;68.85;44.28;;;;;;;19.49;52.08;101314.47;4181844;28;20048;-53
2021/12/31 06:27:30;;;;;;;69.40;42.85;;;;;;;19.49;51.91;101301.41;4181731;28;20079;-49
2021/12/31 06:29:31;;;;;;;67.45;41.83;;;;;;;19.50;51.73;101299.47;4181419;28;20028;-53
2021/12/31 06:31:35;;;;;;;69.38;42.25;;;;;;;19.50;52.05;101305.03;4181771;28;20128;-52
2021/12/31 06:33:36;;;;;;;63.08;41.55;;;;;;;19.44;51.86;101304.16;4181965;28;20086;-50
2021/12/31 06:35:38;;;;;;;67.25;42.20;;;;;;;19.47;52.11;101308.31;4180218;28;20048;-53
2021/12/31 06:37:39;;;;;;;65.70;40.78;;;;;;;19.45;52.14;101302.19;4180871;28;20037;-53
2021/12/31 06:39:46;;;;;;;62.50;40.95;;;;;;;19.48;52.10;101313.63;4181513;28;20029;-52
2021/12/31 06:41:47;;;;;;;61.83;40.60;;;;;;;19.48;52.14;101304.47;4180667;28;20099;-51
2021/12/31 06:43:48;;;;;;;65.72;41.53;;;;;;;19.48;52.06;101308.06;4181571;28;20048;-52
2021/12/31 06:45:50;;;;;;;61.75;39.35;;;;;;;19.48;52.14;101308.06;4181194;28;20036;-51
2021/12/31 06:47:51;;;;;;;64.88;39.75;;;;;;;19.48;52.03;101304.47;4181197;28;20456;-49
2021/12/31 06:49:53;;;;;;;61.20;38.97;;;;;;;19.49;51.99;101311.69;4181330;28;20041;-53
2021/12/31 06:51:54;;;;;;;62.10;38.05;;;;;;;19.50;52.11;101316.13;4181236;28;20075;-52
2021/12/31 06:53:55;;;;;;;62.90;37.50;;;;;;;19.49;52.11;101320.84;4181256;28;20025;-53
2021/12/31 06:55:57;;;;;;;58.58;36.72;;;;;;;19.47;52.06;101313.88;4181329;28;20037;-50
2021/12/31 06:57:59;;;;;;;55.85;37.60;;;;;;;19.47;51.73;101320.28;4180833;28;20045;-53
2021/12/31 07:00:06;;;;;;;57.25;37.53;;;;;;;19.43;51.83;101315.53;4179677;28;20044;-54
2021/12/31 07:02:08;;;;;;;60.40;36.38;;;;;;;19.49;51.82;101325.56;4181150;28;20045;-54
2021/12/31 07:04:10;;;;;;;57.65;37.15;;;;;;;19.47;52.03;101322.19;4180637;28;20346;-54
2021/12/31 07:06:11;;;;;;;53.58;36.05;;;;;;;19.43;51.87;101321.91;4180850;28;20045;-50
2021/12/31 07:08:13;;;;;;;55.80;36.25;;;;;;;19.46;51.74;101320.53;4180779;28;20028;-54
2021/12/31 07:10:14;;;;;;;55.92;35.28;;;;;;;19.45;51.59;101324.41;4180940;28;20041;-51
2021/12/31 07:12:16;;;;;;;57.17;34.63;;;;;;;19.45;51.73;101318.84;4180821;28;20098;-49
2021/12/31 07:14:17;;;;;;;51.42;34.05;;;;;;;19.38;51.40;101302.44;4180942;28;20041;-53
2021/12/31 07:16:18;;;;;;;53.13;34.88;;;;;;;19.41;51.49;101309.38;4181140;28;20082;-50
2021/12/31 07:18:22;;;;;;;50.15;33.20;;;;;;;19.45;51.70;101318.84;4180369;28;20079;-51
2021/12/31 07:20:23;;;;;;;52.80;32.85;;;;;;;19.45;51.36;101321.63;4181053;28;20068;-50
2021/12/31 07:22:24;;;;;;;47.22;32.65;;;;;;;19.46;51.64;101320.53;4180251;28;20439;-50
2021/12/31 07:24:26;;;;;;;47.28;32.63;;;;;;;19.45;51.58;101316.91;4180985;28;20021;-52
2021/12/31 07:26:27;;;;;;;47.67;32.25;;;;;;;19.43;51.28;101313.56;4180347;28;20118;-52
2021/12/31 07:28:31;;;;;;;50.25;31.90;;;;;;;19.44;51.31;101312.47;4180717;28;20045;-48
2021/12/31 07:30:35;;;;;;;50.90;32.20;;;;;;;19.44;51.55;101319.97;4180634;28;20037;-51
2021/12/31 07:32:39;;;;;;;48.60;31.70;;;;;;;19.44;51.43;101322.75;4180703;28;20037;-53
2021/12/31 07:34:41;;;;;;;46.33;30.95;;;;;;;19.46;51.61;101314.97;4180917;28;20083;-50
2021/12/31 07:36:42;;;;;;;47.20;31.08;;;;;;;19.46;51.29;101314.97;4180281;28;20033;-50
2021/12/31 07:38:57;;;;;;;47.47;31.10;;;;;;;19.44;51.12;101315.25;4169575;28;20195;-52
2021/12/31 07:40:59;;;;;;;49.22;30.77;;;;;;;19.46;51.21;101314.97;4164036;28;20049;-49
2021/12/31 07:43:01;;;;;;;45.33;30.15;;;;;;;19.46;51.32;101320.53;4164475;28;20037;-50
2021/12/31 07:45:04;;;;;;;45.92;29.23;;;;;;;19.46;51.32;101320.53;4164336;28;20045;-49
2021/12/31 07:47:05;;;;;;;43.95;28.67;;;;;;;19.45;51.43;101313.31;4164323;28;20432;-51
2021/12/31 07:49:06;;;;;;;43.80;28.88;;;;;;;19.45;51.13;101313.31;4175118;28;20140;-46
2021/12/31 07:51:08;;;;;;;41.42;27.70;;;;;;;19.45;51.28;101313.31;4180650;28;20044;-49
2021/12/31 07:53:12;;;;;;;44.58;29.33;;;;;;;19.45;51.42;101302.19;4180238;28;20041;-48
2021/12/31 07:55:14;;;;;;;43.97;28.33;;;;;;;19.44;51.12;101306.91;4179169;28;20087;-47
2021/12/31 07:57:15;;;;;;;43.72;29.10;;;;;;;19.44;51.44;101298.59;4180091;28;20033;-52
2021/12/31 07:59:17;;;;;;;41.58;28.20;;;;;;;19.42;51.31;101302.72;4178745;28;20049;-53
2021/12/31 08:01:18;;;;;;;43.40;28.48;;;;;;;19.43;51.05;101296.09;4180019;28;20036;-49
2021/12/31 08:03:20;;;;;;;41.65;27.55;;;;;;;19.44;51.15;101294.97;4179679;28;20045;-49
2021/12/31 08:05:22;;;;;;;41.05;26.63;;;;;;;19.42;51.36;101298.00;4180778;28;20083;-52
2021/12/31 08:07:30;;;;;;;41.83;27.00;;;;;;;19.40;51.02;101282.72;4179940;28;20345;-51
2021/12/31 08:09:31;;;;;;;40.28;26.95;;;;;;;19.43;51.06;101287.75;4179023;28;20091;-53
2021/12/31 08:11:33;;;;;;;37.60;24.92;;;;;;;19.42;50.88;101280.50;4180007;28;20025;-52
2021/12/31 08:13:34;;;;;;;41.05;26.13;;;;;;;19.42;51.30;101289.69;4180305;28;20426;-50
2021/12/31 08:15:36;;;;;;;38.05;25.75;;;;;;;19.43;50.99;101283.03;4179842;28;20106;-54
2021/12/31 08:17:37;;;;;;;40.10;25.95;;;;;;;19.42;51.24;101274.97;4180204;28;20036;-48
2021/12/31 08:19:38;;;;;;;38.42;25.77;;;;;;;19.42;50.95;101272.19;4179169;28;20447;-48
2021/12/31 08:21:43;;;;;;;39.67;25.50;;;;;;;19.42;51.09;101272.19;4180426;28;20451;-52
2021/12/31 08:23:44;;;;;;;36.20;24.23;;;;;;;19.41;51.15;101273.28;4180288;28;20434;-51
2021/12/31 08:25:46;;;;;;;38.80;26.20;;;;;;;19.40;51.10;101266.91;4180107;28;20049;-52
2021/12/31 08:27:47;;;;;;;36.90;24.58;;;;;;;19.42;51.21;101266.63;4179828;28;20045;-52
2021/12/31 08:29:49;;;;;;;39.72;26.17;;;;;;;19.41;51.31;101259.41;4180035;28;20037;-50
2021/12/31 08:31:50;;;;;;;36.80;24.80;;;;;;;19.41;50.90;101254.69;4178836;28;20032;-55
2021/12/31 08:33:51;;;;;;;38.13;24.80;;;;;;;19.41;51.15;101251.09;4180165;28;20074;-51
2021/12/31 08:35:53;;;;;;;38.42;24.17;;;;;;;19.41;51.18;101251.94;4180695;28;20110;-52
2021/12/31 08:37:58;;;;;;;36.35;23.92;;;;;;;19.40;50.98;101252.19;4179179;28;20041;-51
2021/12/31 08:39:59;;;;;;;33.40;23.13;;;;;;;19.39;51.21;101248.59;4180487;28;20094;-50
2021/12/31 08:42:04;;;;;;;35.78;23.58;;;;;;;19.37;51.30;101244.41;4179992;28;20041;-53
2021/12/31 08:44:08;;;;;;;34.03;22.52;;;;;;;19.35;50.93;101235.50;4180519;28;20063;-53
2021/12/31 08:46:09;;;;;;;31.53;21.90;;;;;;;19.40;51.25;101249.44;4179395;28;20447;-50
2021/12/31 08:48:11;;;;;;;35.80;23.15;;;;;;;19.41;50.90;101246.38;4179680;28;20729;-50
2021/12/31 08:50:13;;;;;;;33.63;23.08;;;;;;;19.39;50.90;101242.22;4179199;28;20125;-51
2021/12/31 08:52:14;;;;;;;34.80;22.95;;;;;;;19.34;51.29;101222.75;4180022;28;20514;-49
2021/12/31 08:54:16;;;;;;;31.98;21.95;;;;;;;19.38;51.18;101234.97;4180337;28;20115;-48
2021/12/31 08:56:17;;;;;;;31.73;21.40;;;;;;;19.37;51.05;101222.19;4179875;28;20037;-53
2021/12/31 08:58:19;;;;;;;32.58;21.50;;;;;;;19.38;51.23;101229.41;4180960;28;20416;-49
2021/12/31 09:00:20;;;;;;;33.85;22.02;;;;;;;19.39;50.90;101225.56;4178993;28;20045;-51
2021/12/31 09:02:22;;;;;;;30.50;21.95;;;;;;;19.39;51.29;101220.84;4183276;28;20114;-51
2021/12/31 09:04:23;;;;;;;30.23;21.17;;;;;;;19.39;51.15;101217.22;4182903;28;20041;-50
2021/12/31 09:06:24;;;;;;;32.00;20.70;;;;;;;19.39;50.87;101222.78;4182871;28;20110;-53
2021/12/31 09:08:26;;;;;;;31.13;20.17;;;;;;;19.39;51.26;101217.22;4182724;28;20480;-52
2021/12/31 09:10:30;;;;;;;32.42;22.23;;;;;;;19.39;51.30;101220.84;4182791;28;20037;-50
2021/12/31 09:12:32;;;;;;;29.92;20.02;;;;;;;19.33;50.84;101204.38;4179226;28;20026;-52
2021/12/31 09:14:33;;;;;;;30.80;20.55;;;;;;;19.38;50.84;101212.75;4166841;28;20080;-51
2021/12/31 09:16:34;;;;;;;27.02;18.83;;;;;;;19.38;50.69;101204.44;4166799;28;20037;-54
2021/12/31 09:18:36;;;;;;;29.23;19.17;;;;;;;19.35;50.78;101199.44;4166113;28;20042;-51
2021/12/31 09:20:38;;;;;;;29.33;19.63;;;;;;;19.37;50.94;101200.81;4166722;28;20082;-51
2021/12/31 09:22:39;;;;;;;30.10;20.05;;;;;;;19.37;51.02;101205.53;4166644;28;20072;-52